KQFW

Hongcheon

Hongcheon, South Korea
METAR KQFW 230910Z AUTO 11002KT 9000 // CLR 11/12 A3002 RMK A02 TSNO
Observed Flight Rules
Oct-23 @ 09:10 UTC (29 minutes ago) Visual Flight Rules
Wind Visibility Clouds
110° at 2 knots 8,996 meters
  • Clear skies
Temperatures Readings
Current 11°C / 52°F
Dewpoint 12°C / 54°F
Humidity 107%
Altimeter 30.02" Hg
Pressure 1017 hPa
METAR KQFW 230910Z AUTO 11002KT 9000 // CLR 11/12 A3002 RMK A02 TSNO
Observed Flight Rules
Oct-23 @ 09:10 UTC
(29 minutes ago)
VFR
Wind Visibility
110° at 2 knots 8,996 meters
Clouds
  • Clear skies
Temperature Dewpoint
11°C / 52°F 12°C / 54°F
Humidity Altimeter Pressure
107% 30.02" Hg 1017 hPa